sensor_id;sensor_type;location;lat;lon;timestamp;P1;durP1;ratioP1;P2;durP2;ratioP2
12212;SDS011;6169;44.158;22.788;2023-12-04T00:03:50;7.97;;;4.03;;
12212;SDS011;6169;44.158;22.788;2023-12-04T00:08:54;7.40;;;5.43;;
12212;SDS011;6169;44.158;22.788;2023-12-04T00:13:56;10.00;;;5.60;;
12212;SDS011;6169;44.158;22.788;2023-12-04T00:18:59;12.63;;;6.60;;
12212;SDS011;6169;44.158;22.788;2023-12-04T00:24:04;10.73;;;5.20;;
12212;SDS011;6169;44.158;22.788;2023-12-04T00:29:06;16.50;;;9.03;;
12212;SDS011;6169;44.158;22.788;2023-12-04T00:34:08;18.67;;;9.03;;
12212;SDS011;6169;44.158;22.788;2023-12-04T00:39:13;9.07;;;4.83;;
12212;SDS011;6169;44.158;22.788;2023-12-04T00:44:15;16.97;;;9.93;;
12212;SDS011;6169;44.158;22.788;2023-12-04T00:49:18;26.83;;;14.50;;
12212;SDS011;6169;44.158;22.788;2023-12-04T00:54:21;23.37;;;11.33;;
12212;SDS011;6169;44.158;22.788;2023-12-04T00:59:23;10.57;;;6.23;;
12212;SDS011;6169;44.158;22.788;2023-12-04T01:04:26;5.97;;;3.77;;
12212;SDS011;6169;44.158;22.788;2023-12-04T01:09:29;6.40;;;5.23;;
12212;SDS011;6169;44.158;22.788;2023-12-04T01:14:31;10.20;;;4.67;;
12212;SDS011;6169;44.158;22.788;2023-12-04T01:19:33;5.00;;;3.83;;
12212;SDS011;6169;44.158;22.788;2023-12-04T01:24:37;3.60;;;2.97;;
12212;SDS011;6169;44.158;22.788;2023-12-04T01:29:39;3.53;;;2.93;;
12212;SDS011;6169;44.158;22.788;2023-12-04T01:34:41;5.00;;;2.83;;
12212;SDS011;6169;44.158;22.788;2023-12-04T01:39:44;6.03;;;3.13;;
12212;SDS011;6169;44.158;22.788;2023-12-04T01:44:47;4.83;;;2.87;;
12212;SDS011;6169;44.158;22.788;2023-12-04T01:49:49;6.53;;;3.30;;
12212;SDS011;6169;44.158;22.788;2023-12-04T01:54:52;3.23;;;1.80;;
12212;SDS011;6169;44.158;22.788;2023-12-04T01:59:55;5.77;;;3.07;;
12212;SDS011;6169;44.158;22.788;2023-12-04T02:04:57;4.87;;;3.03;;
12212;SDS011;6169;44.158;22.788;2023-12-04T02:10:04;6.77;;;3.97;;
12212;SDS011;6169;44.158;22.788;2023-12-04T02:15:07;4.47;;;2.80;;
12212;SDS011;6169;44.158;22.788;2023-12-04T02:20:12;5.87;;;3.30;;
12212;SDS011;6169;44.158;22.788;2023-12-04T02:25:16;4.60;;;2.87;;
12212;SDS011;6169;44.158;22.788;2023-12-04T02:30:19;4.90;;;3.13;;
12212;SDS011;6169;44.158;22.788;2023-12-04T02:35:24;5.00;;;3.30;;
12212;SDS011;6169;44.158;22.788;2023-12-04T02:40:32;7.20;;;3.47;;
12212;SDS011;6169;44.158;22.788;2023-12-04T02:45:34;6.83;;;3.60;;
12212;SDS011;6169;44.158;22.788;2023-12-04T02:50:36;6.43;;;4.43;;
12212;SDS011;6169;44.158;22.788;2023-12-04T02:55:40;4.43;;;3.13;;
12212;SDS011;6169;44.158;22.788;2023-12-04T03:00:42;4.17;;;2.60;;
12212;SDS011;6169;44.158;22.788;2023-12-04T03:05:44;8.13;;;3.23;;
12212;SDS011;6169;44.158;22.788;2023-12-04T03:10:47;3.90;;;2.30;;
12212;SDS011;6169;44.158;22.788;2023-12-04T03:15:49;5.00;;;2.87;;
12212;SDS011;6169;44.158;22.788;2023-12-04T03:20:51;3.63;;;2.90;;
12212;SDS011;6169;44.158;22.788;2023-12-04T03:25:55;4.57;;;3.07;;
12212;SDS011;6169;44.158;22.788;2023-12-04T03:30:57;5.90;;;3.20;;
12212;SDS011;6169;44.158;22.788;2023-12-04T03:35:59;3.03;;;2.33;;
12212;SDS011;6169;44.158;22.788;2023-12-04T03:41:03;4.17;;;2.50;;
12212;SDS011;6169;44.158;22.788;2023-12-04T03:46:05;4.27;;;2.90;;
12212;SDS011;6169;44.158;22.788;2023-12-04T03:51:08;4.07;;;3.00;;
12212;SDS011;6169;44.158;22.788;2023-12-04T03:56:11;4.50;;;2.90;;
12212;SDS011;6169;44.158;22.788;2023-12-04T04:01:13;2.43;;;1.50;;
12212;SDS011;6169;44.158;22.788;2023-12-04T04:06:15;7.00;;;3.90;;
12212;SDS011;6169;44.158;22.788;2023-12-04T04:11:19;3.97;;;2.53;;
12212;SDS011;6169;44.158;22.788;2023-12-04T04:16:22;6.93;;;3.43;;
12212;SDS011;6169;44.158;22.788;2023-12-04T04:21:24;3.80;;;2.60;;
12212;SDS011;6169;44.158;22.788;2023-12-04T04:26:27;4.47;;;2.43;;
12212;SDS011;6169;44.158;22.788;2023-12-04T04:31:29;5.60;;;2.83;;
12212;SDS011;6169;44.158;22.788;2023-12-04T04:36:31;4.57;;;2.83;;
12212;SDS011;6169;44.158;22.788;2023-12-04T04:41:37;5.77;;;3.43;;
12212;SDS011;6169;44.158;22.788;2023-12-04T04:46:39;6.40;;;3.67;;
12212;SDS011;6169;44.158;22.788;2023-12-04T04:51:42;33.03;;;15.70;;
12212;SDS011;6169;44.158;22.788;2023-12-04T04:56:45;9.03;;;5.80;;
12212;SDS011;6169;44.158;22.788;2023-12-04T05:01:47;7.83;;;5.23;;
12212;SDS011;6169;44.158;22.788;2023-12-04T05:06:49;7.07;;;4.20;;
12212;SDS011;6169;44.158;22.788;2023-12-04T05:11:53;7.80;;;4.70;;
12212;SDS011;6169;44.158;22.788;2023-12-04T05:16:55;8.07;;;4.07;;
12212;SDS011;6169;44.158;22.788;2023-12-04T05:21:57;7.27;;;5.03;;
12212;SDS011;6169;44.158;22.788;2023-12-04T05:27:00;7.87;;;3.90;;
12212;SDS011;6169;44.158;22.788;2023-12-04T05:32:04;6.83;;;4.03;;
12212;SDS011;6169;44.158;22.788;2023-12-04T05:37:06;10.73;;;4.17;;
12212;SDS011;6169;44.158;22.788;2023-12-04T05:42:10;7.93;;;4.53;;
12212;SDS011;6169;44.158;22.788;2023-12-04T05:47:12;7.60;;;5.23;;
12212;SDS011;6169;44.158;22.788;2023-12-04T05:52:14;6.40;;;4.47;;
12212;SDS011;6169;44.158;22.788;2023-12-04T05:57:18;8.17;;;4.93;;
12212;SDS011;6169;44.158;22.788;2023-12-04T06:02:20;5.90;;;3.83;;
12212;SDS011;6169;44.158;22.788;2023-12-04T06:07:22;5.07;;;3.40;;
12212;SDS011;6169;44.158;22.788;2023-12-04T06:12:26;7.50;;;3.63;;
12212;SDS011;6169;44.158;22.788;2023-12-04T06:17:28;7.70;;;4.33;;
12212;SDS011;6169;44.158;22.788;2023-12-04T06:22:30;7.43;;;4.13;;
12212;SDS011;6169;44.158;22.788;2023-12-04T06:27:34;6.77;;;4.43;;
12212;SDS011;6169;44.158;22.788;2023-12-04T06:32:39;5.60;;;3.67;;
12212;SDS011;6169;44.158;22.788;2023-12-04T06:37:41;5.17;;;3.60;;
12212;SDS011;6169;44.158;22.788;2023-12-04T06:42:48;15.90;;;4.27;;
12212;SDS011;6169;44.158;22.788;2023-12-04T06:47:51;6.30;;;3.67;;
12212;SDS011;6169;44.158;22.788;2023-12-04T06:52:53;10.30;;;5.37;;
12212;SDS011;6169;44.158;22.788;2023-12-04T06:57:57;7.80;;;4.03;;
12212;SDS011;6169;44.158;22.788;2023-12-04T07:02:59;7.67;;;5.00;;
12212;SDS011;6169;44.158;22.788;2023-12-04T07:08:02;9.00;;;3.67;;
12212;SDS011;6169;44.158;22.788;2023-12-04T07:13:05;10.03;;;4.13;;
12212;SDS011;6169;44.158;22.788;2023-12-04T07:18:07;7.00;;;4.50;;
12212;SDS011;6169;44.158;22.788;2023-12-04T07:23:10;7.97;;;3.77;;
12212;SDS011;6169;44.158;22.788;2023-12-04T07:28:13;10.63;;;5.87;;
12212;SDS011;6169;44.158;22.788;2023-12-04T07:33:15;14.47;;;4.73;;
12212;SDS011;6169;44.158;22.788;2023-12-04T07:38:17;12.80;;;5.33;;
12212;SDS011;6169;44.158;22.788;2023-12-04T07:43:21;8.47;;;5.33;;
12212;SDS011;6169;44.158;22.788;2023-12-04T07:48:23;9.07;;;4.80;;
12212;SDS011;6169;44.158;22.788;2023-12-04T07:53:25;8.00;;;4.40;;
12212;SDS011;6169;44.158;22.788;2023-12-04T07:58:29;9.67;;;5.20;;
12212;SDS011;6169;44.158;22.788;2023-12-04T08:03:31;8.13;;;5.10;;
12212;SDS011;6169;44.158;22.788;2023-12-04T08:08:33;8.17;;;4.50;;
12212;SDS011;6169;44.158;22.788;2023-12-04T08:13:37;8.70;;;5.30;;
12212;SDS011;6169;44.158;22.788;2023-12-04T08:18:39;7.67;;;4.17;;
12212;SDS011;6169;44.158;22.788;2023-12-04T08:23:41;26.63;;;14.47;;
12212;SDS011;6169;44.158;22.788;2023-12-04T08:28:45;19.83;;;12.47;;
12212;SDS011;6169;44.158;22.788;2023-12-04T08:33:47;9.33;;;6.33;;
12212;SDS011;6169;44.158;22.788;2023-12-04T08:38:49;8.57;;;5.20;;
12212;SDS011;6169;44.158;22.788;2023-12-04T08:43:53;10.30;;;5.73;;
12212;SDS011;6169;44.158;22.788;2023-12-04T08:48:55;9.90;;;4.53;;
12212;SDS011;6169;44.158;22.788;2023-12-04T08:53:57;12.43;;;5.13;;
12212;SDS011;6169;44.158;22.788;2023-12-04T08:59:00;11.17;;;5.77;;
12212;SDS011;6169;44.158;22.788;2023-12-04T09:04:02;8.40;;;5.10;;
12212;SDS011;6169;44.158;22.788;2023-12-04T09:09:04;6.17;;;4.00;;
12212;SDS011;6169;44.158;22.788;2023-12-04T09:14:08;5.67;;;4.17;;
12212;SDS011;6169;44.158;22.788;2023-12-04T09:19:10;17.37;;;9.30;;
12212;SDS011;6169;44.158;22.788;2023-12-04T09:24:12;13.57;;;6.53;;
12212;SDS011;6169;44.158;22.788;2023-12-04T09:29:16;16.00;;;8.83;;
12212;SDS011;6169;44.158;22.788;2023-12-04T09:34:18;10.37;;;5.83;;
12212;SDS011;6169;44.158;22.788;2023-12-04T09:39:22;10.17;;;5.57;;
12212;SDS011;6169;44.158;22.788;2023-12-04T09:44:26;10.70;;;6.73;;
12212;SDS011;6169;44.158;22.788;2023-12-04T09:49:30;15.70;;;8.33;;
12212;SDS011;6169;44.158;22.788;2023-12-04T09:54:33;8.73;;;4.47;;
12212;SDS011;6169;44.158;22.788;2023-12-04T09:59:38;10.60;;;5.37;;
12212;SDS011;6169;44.158;22.788;2023-12-04T10:04:41;6.73;;;4.63;;
12212;SDS011;6169;44.158;22.788;2023-12-04T10:09:44;10.00;;;5.00;;
12212;SDS011;6169;44.158;22.788;2023-12-04T10:14:48;10.07;;;4.77;;
12212;SDS011;6169;44.158;22.788;2023-12-04T10:20:05;6.37;;;3.20;;
12212;SDS011;6169;44.158;22.788;2023-12-04T10:25:15;5.90;;;4.10;;
12212;SDS011;6169;44.158;22.788;2023-12-04T10:30:23;11.70;;;5.53;;
12212;SDS011;6169;44.158;22.788;2023-12-04T10:35:31;6.83;;;4.80;;
12212;SDS011;6169;44.158;22.788;2023-12-04T10:40:36;13.70;;;7.13;;
12212;SDS011;6169;44.158;22.788;2023-12-04T10:45:41;9.67;;;5.37;;
12212;SDS011;6169;44.158;22.788;2023-12-04T10:50:43;10.17;;;5.80;;
12212;SDS011;6169;44.158;22.788;2023-12-04T10:55:47;9.73;;;6.33;;
12212;SDS011;6169;44.158;22.788;2023-12-04T11:00:55;15.13;;;7.37;;
12212;SDS011;6169;44.158;22.788;2023-12-04T11:06:01;14.07;;;7.53;;
12212;SDS011;6169;44.158;22.788;2023-12-04T11:11:04;9.57;;;5.97;;
12212;SDS011;6169;44.158;22.788;2023-12-04T11:16:12;7.97;;;5.13;;
12212;SDS011;6169;44.158;22.788;2023-12-04T11:21:20;9.73;;;5.77;;
12212;SDS011;6169;44.158;22.788;2023-12-04T11:26:22;12.67;;;6.40;;
12212;SDS011;6169;44.158;22.788;2023-12-04T11:31:27;8.90;;;4.60;;
12212;SDS011;6169;44.158;22.788;2023-12-04T11:36:31;15.17;;;7.37;;
12212;SDS011;6169;44.158;22.788;2023-12-04T11:41:33;9.77;;;6.93;;
12212;SDS011;6169;44.158;22.788;2023-12-04T11:46:38;9.40;;;5.60;;
12212;SDS011;6169;44.158;22.788;2023-12-04T11:51:46;11.23;;;6.47;;
12212;SDS011;6169;44.158;22.788;2023-12-04T11:56:58;14.07;;;6.87;;
12212;SDS011;6169;44.158;22.788;2023-12-04T12:02:09;20.83;;;8.23;;
12212;SDS011;6169;44.158;22.788;2023-12-04T12:07:12;11.25;;;6.03;;
12212;SDS011;6169;44.158;22.788;2023-12-04T12:12:14;10.93;;;7.40;;
12212;SDS011;6169;44.158;22.788;2023-12-04T12:17:18;15.47;;;8.03;;
12212;SDS011;6169;44.158;22.788;2023-12-04T12:22:20;14.20;;;8.27;;
12212;SDS011;6169;44.158;22.788;2023-12-04T12:27:24;17.73;;;7.23;;
12212;SDS011;6169;44.158;22.788;2023-12-04T12:32:28;13.27;;;7.30;;
12212;SDS011;6169;44.158;22.788;2023-12-04T12:37:30;13.77;;;7.13;;
12212;SDS011;6169;44.158;22.788;2023-12-04T12:42:32;11.03;;;6.50;;
12212;SDS011;6169;44.158;22.788;2023-12-04T12:47:36;9.60;;;6.23;;
12212;SDS011;6169;44.158;22.788;2023-12-04T12:52:38;10.43;;;6.03;;
12212;SDS011;6169;44.158;22.788;2023-12-04T12:57:40;13.03;;;7.07;;
12212;SDS011;6169;44.158;22.788;2023-12-04T13:02:44;11.07;;;6.13;;
12212;SDS011;6169;44.158;22.788;2023-12-04T13:07:46;13.27;;;6.83;;
12212;SDS011;6169;44.158;22.788;2023-12-04T13:12:48;11.20;;;6.73;;
12212;SDS011;6169;44.158;22.788;2023-12-04T13:17:54;8.47;;;5.53;;
12212;SDS011;6169;44.158;22.788;2023-12-04T13:22:56;11.33;;;6.07;;
12212;SDS011;6169;44.158;22.788;2023-12-04T13:27:58;12.73;;;6.77;;
12212;SDS011;6169;44.158;22.788;2023-12-04T13:33:02;13.57;;;7.60;;
12212;SDS011;6169;44.158;22.788;2023-12-04T13:38:04;10.60;;;7.17;;
12212;SDS011;6169;44.158;22.788;2023-12-04T13:43:13;11.23;;;6.77;;
12212;SDS011;6169;44.158;22.788;2023-12-04T13:48:34;12.27;;;7.10;;
12212;SDS011;6169;44.158;22.788;2023-12-04T13:53:38;12.40;;;7.40;;
12212;SDS011;6169;44.158;22.788;2023-12-04T13:58:44;13.03;;;7.60;;
12212;SDS011;6169;44.158;22.788;2023-12-04T14:03:50;13.43;;;6.57;;
12212;SDS011;6169;44.158;22.788;2023-12-04T14:08:53;11.67;;;6.90;;
12212;SDS011;6169;44.158;22.788;2023-12-04T14:13:55;12.03;;;6.90;;
12212;SDS011;6169;44.158;22.788;2023-12-04T14:18:59;10.73;;;7.27;;
12212;SDS011;6169;44.158;22.788;2023-12-04T14:24:01;15.33;;;7.73;;
12212;SDS011;6169;44.158;22.788;2023-12-04T14:29:03;13.07;;;7.30;;
12212;SDS011;6169;44.158;22.788;2023-12-04T14:34:09;21.83;;;10.73;;
12212;SDS011;6169;44.158;22.788;2023-12-04T14:39:11;19.03;;;9.83;;
12212;SDS011;6169;44.158;22.788;2023-12-04T14:44:13;18.60;;;9.90;;
12212;SDS011;6169;44.158;22.788;2023-12-04T14:49:17;16.27;;;11.03;;
12212;SDS011;6169;44.158;22.788;2023-12-04T14:54:19;19.43;;;11.47;;
12212;SDS011;6169;44.158;22.788;2023-12-04T14:59:36;19.23;;;10.60;;
12212;SDS011;6169;44.158;22.788;2023-12-04T15:05:12;20.20;;;10.70;;
12212;SDS011;6169;44.158;22.788;2023-12-04T15:10:33;22.57;;;13.43;;
12212;SDS011;6169;44.158;22.788;2023-12-04T15:15:52;21.53;;;12.43;;
12212;SDS011;6169;44.158;22.788;2023-12-04T15:21:13;26.20;;;12.93;;
12212;SDS011;6169;44.158;22.788;2023-12-04T15:26:15;21.77;;;12.53;;
12212;SDS011;6169;44.158;22.788;2023-12-04T15:31:18;26.10;;;12.93;;
12212;SDS011;6169;44.158;22.788;2023-12-04T15:36:21;21.27;;;11.43;;
12212;SDS011;6169;44.158;22.788;2023-12-04T15:41:24;23.00;;;12.53;;
12212;SDS011;6169;44.158;22.788;2023-12-04T15:46:26;19.67;;;12.07;;
12212;SDS011;6169;44.158;22.788;2023-12-04T15:51:30;32.53;;;13.57;;
12212;SDS011;6169;44.158;22.788;2023-12-04T15:56:33;29.27;;;14.20;;
12212;SDS011;6169;44.158;22.788;2023-12-04T16:01:36;28.10;;;15.67;;
12212;SDS011;6169;44.158;22.788;2023-12-04T16:06:40;29.57;;;14.70;;
12212;SDS011;6169;44.158;22.788;2023-12-04T16:11:42;28.23;;;14.73;;
12212;SDS011;6169;44.158;22.788;2023-12-04T16:16:44;24.57;;;12.27;;
12212;SDS011;6169;44.158;22.788;2023-12-04T16:21:47;18.50;;;11.93;;
12212;SDS011;6169;44.158;22.788;2023-12-04T16:26:49;25.27;;;13.97;;
12212;SDS011;6169;44.158;22.788;2023-12-04T16:31:53;20.97;;;11.43;;
12212;SDS011;6169;44.158;22.788;2023-12-04T16:36:57;24.20;;;12.33;;
12212;SDS011;6169;44.158;22.788;2023-12-04T16:41:59;21.63;;;12.50;;
12212;SDS011;6169;44.158;22.788;2023-12-04T16:47:01;30.17;;;13.77;;
12212;SDS011;6169;44.158;22.788;2023-12-04T16:52:05;21.87;;;14.57;;
12212;SDS011;6169;44.158;22.788;2023-12-04T16:57:07;29.20;;;16.20;;
12212;SDS011;6169;44.158;22.788;2023-12-04T17:02:10;24.67;;;13.97;;
12212;SDS011;6169;44.158;22.788;2023-12-04T17:07:13;30.57;;;16.80;;
12212;SDS011;6169;44.158;22.788;2023-12-04T17:12:15;29.53;;;17.70;;
12212;SDS011;6169;44.158;22.788;2023-12-04T17:17:17;31.10;;;16.30;;
12212;SDS011;6169;44.158;22.788;2023-12-04T17:22:21;33.23;;;19.03;;
12212;SDS011;6169;44.158;22.788;2023-12-04T17:27:25;31.07;;;18.00;;
12212;SDS011;6169;44.158;22.788;2023-12-04T17:32:27;29.70;;;17.27;;
12212;SDS011;6169;44.158;22.788;2023-12-04T17:37:30;32.03;;;17.73;;
12212;SDS011;6169;44.158;22.788;2023-12-04T17:42:33;40.60;;;20.63;;
12212;SDS011;6169;44.158;22.788;2023-12-04T17:47:37;38.73;;;18.50;;
12212;SDS011;6169;44.158;22.788;2023-12-04T17:52:41;29.43;;;16.17;;
12212;SDS011;6169;44.158;22.788;2023-12-04T17:57:43;29.73;;;16.20;;
12212;SDS011;6169;44.158;22.788;2023-12-04T18:02:45;30.43;;;16.23;;
12212;SDS011;6169;44.158;22.788;2023-12-04T18:07:49;58.13;;;33.57;;
12212;SDS011;6169;44.158;22.788;2023-12-04T18:12:51;52.50;;;30.43;;
12212;SDS011;6169;44.158;22.788;2023-12-04T18:17:53;99.23;;;48.77;;
12212;SDS011;6169;44.158;22.788;2023-12-04T18:22:57;64.20;;;31.13;;
12212;SDS011;6169;44.158;22.788;2023-12-04T18:27:59;29.53;;;17.93;;
12212;SDS011;6169;44.158;22.788;2023-12-04T18:33:03;54.10;;;21.93;;
12212;SDS011;6169;44.158;22.788;2023-12-04T18:38:09;47.00;;;21.20;;
12212;SDS011;6169;44.158;22.788;2023-12-04T18:43:14;46.87;;;22.20;;
12212;SDS011;6169;44.158;22.788;2023-12-04T18:48:19;40.07;;;21.07;;
12212;SDS011;6169;44.158;22.788;2023-12-04T18:53:24;37.50;;;20.43;;
12212;SDS011;6169;44.158;22.788;2023-12-04T18:58:27;59.53;;;27.50;;
12212;SDS011;6169;44.158;22.788;2023-12-04T19:03:29;44.47;;;24.80;;
12212;SDS011;6169;44.158;22.788;2023-12-04T19:08:32;73.27;;;33.87;;
12212;SDS011;6169;44.158;22.788;2023-12-04T19:13:35;48.43;;;24.87;;
12212;SDS011;6169;44.158;22.788;2023-12-04T19:18:37;55.83;;;25.77;;
12212;SDS011;6169;44.158;22.788;2023-12-04T19:23:41;55.80;;;30.43;;
12212;SDS011;6169;44.158;22.788;2023-12-04T19:28:43;121.37;;;54.57;;
12212;SDS011;6169;44.158;22.788;2023-12-04T19:33:45;87.10;;;41.23;;
12212;SDS011;6169;44.158;22.788;2023-12-04T19:38:48;70.70;;;34.13;;
12212;SDS011;6169;44.158;22.788;2023-12-04T19:43:50;64.37;;;33.33;;
12212;SDS011;6169;44.158;22.788;2023-12-04T19:48:52;65.60;;;30.37;;
12212;SDS011;6169;44.158;22.788;2023-12-04T19:53:56;60.47;;;30.53;;
12212;SDS011;6169;44.158;22.788;2023-12-04T19:58:58;60.57;;;32.77;;
12212;SDS011;6169;44.158;22.788;2023-12-04T20:04:00;56.33;;;31.20;;
12212;SDS011;6169;44.158;22.788;2023-12-04T20:09:04;63.20;;;32.47;;
12212;SDS011;6169;44.158;22.788;2023-12-04T20:14:06;49.43;;;24.43;;
12212;SDS011;6169;44.158;22.788;2023-12-04T20:19:09;46.63;;;23.70;;
12212;SDS011;6169;44.158;22.788;2023-12-04T20:24:13;52.60;;;24.50;;
12212;SDS011;6169;44.158;22.788;2023-12-04T20:29:16;46.47;;;22.37;;
12212;SDS011;6169;44.158;22.788;2023-12-04T20:34:18;56.77;;;28.17;;
12212;SDS011;6169;44.158;22.788;2023-12-04T20:39:22;54.67;;;25.40;;
12212;SDS011;6169;44.158;22.788;2023-12-04T20:44:24;66.87;;;33.77;;
12212;SDS011;6169;44.158;22.788;2023-12-04T20:49:26;76.60;;;39.03;;
12212;SDS011;6169;44.158;22.788;2023-12-04T20:54:30;75.80;;;37.17;;
12212;SDS011;6169;44.158;22.788;2023-12-04T20:59:33;77.07;;;37.67;;
12212;SDS011;6169;44.158;22.788;2023-12-04T21:04:35;68.80;;;34.57;;
12212;SDS011;6169;44.158;22.788;2023-12-04T21:09:38;71.93;;;36.57;;
12212;SDS011;6169;44.158;22.788;2023-12-04T21:14:42;61.93;;;32.43;;
12212;SDS011;6169;44.158;22.788;2023-12-04T21:19:44;67.70;;;34.77;;
12212;SDS011;6169;44.158;22.788;2023-12-04T21:24:48;64.33;;;32.27;;
12212;SDS011;6169;44.158;22.788;2023-12-04T21:29:50;65.63;;;30.93;;
12212;SDS011;6169;44.158;22.788;2023-12-04T21:34:52;67.10;;;32.43;;
12212;SDS011;6169;44.158;22.788;2023-12-04T21:39:56;59.33;;;29.27;;
12212;SDS011;6169;44.158;22.788;2023-12-04T21:44:58;61.97;;;30.10;;
12212;SDS011;6169;44.158;22.788;2023-12-04T21:50:00;73.87;;;32.37;;
12212;SDS011;6169;44.158;22.788;2023-12-04T21:55:04;59.57;;;30.63;;
12212;SDS011;6169;44.158;22.788;2023-12-04T22:00:08;66.90;;;31.37;;
12212;SDS011;6169;44.158;22.788;2023-12-04T22:05:11;59.00;;;28.50;;
12212;SDS011;6169;44.158;22.788;2023-12-04T22:10:15;62.33;;;29.03;;
12212;SDS011;6169;44.158;22.788;2023-12-04T22:15:17;55.20;;;30.20;;
12212;SDS011;6169;44.158;22.788;2023-12-04T22:20:20;65.40;;;31.63;;
12212;SDS011;6169;44.158;22.788;2023-12-04T22:25:24;63.00;;;30.63;;
12212;SDS011;6169;44.158;22.788;2023-12-04T22:30:26;61.57;;;30.40;;
12212;SDS011;6169;44.158;22.788;2023-12-04T22:35:28;50.47;;;27.83;;
12212;SDS011;6169;44.158;22.788;2023-12-04T22:40:32;55.27;;;30.40;;
12212;SDS011;6169;44.158;22.788;2023-12-04T22:45:34;60.93;;;31.27;;
12212;SDS011;6169;44.158;22.788;2023-12-04T22:50:37;64.00;;;30.70;;
12212;SDS011;6169;44.158;22.788;2023-12-04T22:55:41;57.67;;;27.60;;
12212;SDS011;6169;44.158;22.788;2023-12-04T23:00:43;52.30;;;28.73;;
12212;SDS011;6169;44.158;22.788;2023-12-04T23:05:45;50.77;;;26.43;;
12212;SDS011;6169;44.158;22.788;2023-12-04T23:10:48;55.77;;;29.43;;
12212;SDS011;6169;44.158;22.788;2023-12-04T23:15:51;46.40;;;24.27;;
12212;SDS011;6169;44.158;22.788;2023-12-04T23:20:53;48.70;;;26.80;;
12212;SDS011;6169;44.158;22.788;2023-12-04T23:25:56;52.87;;;26.23;;
12212;SDS011;6169;44.158;22.788;2023-12-04T23:31:00;47.13;;;25.27;;
12212;SDS011;6169;44.158;22.788;2023-12-04T23:36:03;47.67;;;24.83;;
12212;SDS011;6169;44.158;22.788;2023-12-04T23:41:07;44.23;;;24.47;;
12212;SDS011;6169;44.158;22.788;2023-12-04T23:46:09;40.90;;;20.67;;
12212;SDS011;6169;44.158;22.788;2023-12-04T23:51:12;39.50;;;21.83;;
12212;SDS011;6169;44.158;22.788;2023-12-04T23:56:15;36.03;;;20.33;;
